createdAt,value
2018-02-11T00:00:09.426Z,99500.52
2018-02-11T00:02:36.876Z,99492.91
2018-02-11T00:05:04.342Z,99495.67
2018-02-11T00:07:31.858Z,99487.78
2018-02-11T00:09:59.302Z,99480.03
2018-02-11T00:12:27.046Z,99468.55
2018-02-11T00:14:54.520Z,99475.75
2018-02-11T00:17:21.996Z,99453.73
2018-02-11T00:19:49.475Z,99442.96
2018-02-11T00:22:16.923Z,99438.77
2018-02-11T00:24:44.375Z,99442.61
2018-02-11T00:27:17.736Z,99437.42
2018-02-11T00:29:45.204Z,99437.02
2018-02-11T00:32:12.674Z,99436.88
2018-02-11T00:34:53.263Z,99432.55
2018-02-11T00:37:26.347Z,99426.33
2018-02-11T00:39:54.642Z,99411.81
2018-02-11T00:42:22.106Z,99409.38
2018-02-11T00:44:49.546Z,99409.47
2018-02-11T00:47:17.018Z,99411.36
2018-02-11T00:49:44.476Z,99395.17
2018-02-11T00:52:11.942Z,99398.64
2018-02-11T00:54:39.400Z,99398.72
2018-02-11T00:57:06.875Z,99380.67
2018-02-11T00:59:34.331Z,99369.94
2018-02-11T01:02:01.804Z,99361.63
2018-02-11T01:04:29.255Z,99350.56
2018-02-11T01:06:56.735Z,99352.59
2018-02-11T01:09:24.184Z,99347.22
2018-02-11T01:11:51.656Z,99340.66
2018-02-11T01:14:19.138Z,99338.92
2018-02-11T01:16:46.611Z,99324.53
2018-02-11T01:19:14.061Z,99318.77
2018-02-11T01:21:41.532Z,99313.80
2018-02-11T01:24:08.985Z,99309.41
2018-02-11T01:26:36.451Z,99306.13
2018-02-11T01:29:03.898Z,99302.32
2018-02-11T01:31:31.350Z,99297.67
2018-02-11T01:33:58.802Z,99290.47
2018-02-11T01:36:26.279Z,99281.45
2018-02-11T01:38:53.734Z,99276.16
2018-02-11T01:41:21.210Z,99273.27
2018-02-11T01:43:48.659Z,99269.47
2018-02-11T01:46:16.130Z,99256.56
2018-02-11T01:48:43.587Z,99249.09
2018-02-11T01:51:11.059Z,99251.91
2018-02-11T01:53:38.512Z,99236.47
2018-02-11T01:56:05.978Z,99216.09
2018-02-11T01:58:33.431Z,99209.81
2018-02-11T02:01:00.878Z,99196.77
2018-02-11T02:03:28.342Z,99191.75
2018-02-11T02:05:55.784Z,99184.89
2018-02-11T02:08:23.250Z,99171.43
2018-02-11T02:10:50.711Z,99164.08
2018-02-11T02:13:18.189Z,99161.81
2018-02-11T02:15:45.647Z,99151.41
2018-02-11T02:18:13.110Z,99138.65
2018-02-11T02:20:40.563Z,99129.38
2018-02-11T02:23:08.039Z,99127.68
2018-02-11T02:25:35.492Z,99111.95
2018-02-11T02:28:03.011Z,99116.20
2018-02-11T02:30:30.459Z,99105.94
2018-02-11T02:32:57.936Z,99104.92
2018-02-11T02:35:25.395Z,99097.89
2018-02-11T02:37:52.858Z,99102.66
2018-02-11T02:40:20.306Z,99106.27
2018-02-11T02:42:47.780Z,99090.03
2018-02-11T02:45:15.226Z,99086.26
2018-02-11T02:47:42.698Z,99073.90
2018-02-11T02:50:10.144Z,99066.17
2018-02-11T02:52:37.614Z,99072.49
2018-02-11T02:55:05.067Z,99057.70
2018-02-11T02:57:32.534Z,99041.41
2018-02-11T02:59:59.985Z,99040.47
2018-02-11T03:02:27.458Z,99035.19
2018-02-11T03:04:54.913Z,99031.95
2018-02-11T03:07:22.428Z,99030.98
2018-02-11T03:09:49.903Z,99035.46
2018-02-11T03:12:17.376Z,99023.83
2018-02-11T03:14:44.828Z,99009.23
2018-02-11T03:17:12.301Z,99014.61
2018-02-11T03:19:39.755Z,99003.14
2018-02-11T03:22:07.206Z,98995.81
2018-02-11T03:24:34.666Z,98987.73
2018-02-11T03:27:02.124Z,98975.07
2018-02-11T03:29:29.585Z,98978.83
2018-02-11T03:31:57.086Z,98969.89
2018-02-11T03:34:24.562Z,98969.25
2018-02-11T03:36:52.007Z,98959.84
2018-02-11T03:39:19.471Z,98948.94
2018-02-11T03:41:47.295Z,98949.58
2018-02-11T03:44:14.762Z,98940.68
2018-02-11T03:46:42.214Z,98918.11
2018-02-11T03:49:09.694Z,98915.47
2018-02-11T03:51:37.145Z,98893.13
2018-02-11T03:54:04.681Z,98890.05
2018-02-11T03:56:32.141Z,98885.86
2018-02-11T03:58:59.611Z,98893.23
2018-02-11T04:01:27.055Z,98887.59
2018-02-11T04:03:54.530Z,98873.41
2018-02-11T04:06:21.986Z,98872.72
2018-02-11T04:08:49.456Z,98876.03
2018-02-11T04:11:16.912Z,98866.70
2018-02-11T04:13:44.382Z,98866.08
2018-02-11T04:16:11.832Z,98864.84
2018-02-11T04:18:39.308Z,98865.02
2018-02-11T04:21:06.758Z,98863.98
2018-02-11T04:23:34.235Z,98851.69
2018-02-11T04:26:01.691Z,98849.28
2018-02-11T04:28:29.155Z,98847.16
2018-02-11T04:30:56.602Z,98827.80
2018-02-11T04:33:24.161Z,98824.63
2018-02-11T04:35:51.612Z,98826.92
2018-02-11T04:38:19.079Z,98826.13
2018-02-11T04:40:46.526Z,98824.92
2018-02-11T04:43:14.045Z,98805.80
2018-02-11T04:45:41.494Z,98818.64
2018-02-11T04:48:08.943Z,98817.62
2018-02-11T04:50:36.406Z,98806.64
2018-02-11T04:53:03.859Z,98802.90
2018-02-11T04:55:31.334Z,98787.63
2018-02-11T04:57:58.811Z,98770.73
2018-02-11T05:00:26.280Z,98767.31
2018-02-11T05:02:53.741Z,98755.73
2018-02-11T05:05:21.206Z,98759.70
2018-02-11T05:07:48.652Z,98751.25
2018-02-11T05:10:16.169Z,98752.09
2018-02-11T05:12:43.619Z,98734.97
2018-02-11T05:15:11.082Z,98736.37
2018-02-11T05:17:38.558Z,98732.35
2018-02-11T05:20:06.026Z,98724.61
2018-02-11T05:22:33.488Z,98722.00
2018-02-11T05:25:00.965Z,98713.88
2018-02-11T05:27:28.424Z,98704.80
2018-02-11T05:29:55.894Z,98699.96
2018-02-11T05:32:23.338Z,98681.97
2018-02-11T05:34:50.806Z,98692.63
2018-02-11T05:37:18.250Z,98683.45
2018-02-11T05:39:45.719Z,98684.77
2018-02-11T05:42:13.175Z,98680.92
2018-02-11T05:44:40.646Z,98668.66
2018-02-11T05:47:08.102Z,98657.05
2018-02-11T05:49:35.567Z,98650.56
2018-02-11T05:52:03.019Z,98643.13
2018-02-11T05:54:30.491Z,98642.37
2018-02-11T05:56:57.943Z,98654.13
2018-02-11T05:59:25.410Z,98643.89
2018-02-11T06:01:52.858Z,98653.94
2018-02-11T06:04:20.331Z,98653.45
2018-02-11T06:06:47.794Z,98650.63
2018-02-11T06:09:15.239Z,98656.95
2018-02-11T06:11:42.707Z,98642.94
2018-02-11T06:14:10.161Z,98642.02
2018-02-11T06:16:37.629Z,98643.32
2018-02-11T06:19:05.082Z,98642.06
2018-02-11T06:21:32.550Z,98664.48
2018-02-11T06:24:00.009Z,98647.28
2018-02-11T06:26:27.487Z,98668.88
2018-02-11T06:28:54.928Z,98675.95
2018-02-11T06:31:22.399Z,98686.29
2018-02-11T06:33:49.851Z,98680.35
2018-02-11T06:36:17.327Z,98681.16
2018-02-11T06:38:44.772Z,98684.03
2018-02-11T06:41:12.239Z,98681.66
2018-02-11T06:43:39.686Z,98683.30
2018-02-11T06:46:07.166Z,98685.78
2018-02-11T06:48:34.620Z,98690.81
2018-02-11T06:51:02.104Z,98689.00
2018-02-11T06:53:29.551Z,98703.80
2018-02-11T06:55:57.028Z,98710.23
2018-02-11T06:58:24.479Z,98707.56
2018-02-11T07:00:51.956Z,98707.64
2018-02-11T07:03:19.411Z,98730.70
2018-02-11T07:05:46.879Z,98732.09
2018-02-11T07:08:14.366Z,98734.61
2018-02-11T07:10:41.838Z,98743.55
2018-02-11T07:13:09.287Z,98744.16
2018-02-11T07:15:36.759Z,98741.31
2018-02-11T07:18:04.265Z,98747.19
2018-02-11T07:20:31.740Z,98745.99
2018-02-11T07:22:59.194Z,98734.41
2018-02-11T07:25:26.673Z,98730.55
2018-02-11T07:27:54.126Z,98726.53
2018-02-11T07:30:21.638Z,98718.61
2018-02-11T07:32:49.091Z,98718.25
2018-02-11T07:35:16.539Z,98706.78
2018-02-11T07:37:44.018Z,98693.83
2018-02-11T07:40:11.472Z,98699.63
2018-02-11T07:42:38.943Z,98684.97
2018-02-11T07:45:06.396Z,98687.00
2018-02-11T07:47:33.862Z,98696.36
2018-02-11T07:50:01.313Z,98709.95
2018-02-11T07:52:28.795Z,98716.34
2018-02-11T07:54:56.247Z,98711.94
2018-02-11T07:57:23.706Z,98721.48
2018-02-11T07:59:51.155Z,98717.27
2018-02-11T08:02:18.624Z,98731.06
2018-02-11T08:04:46.075Z,98726.15
2018-02-11T08:07:13.560Z,98727.30
2018-02-11T08:09:41.012Z,98726.86
2018-02-11T08:12:08.506Z,98730.09
2018-02-11T08:14:35.949Z,98715.93
2018-02-11T08:17:03.419Z,98714.95
2018-02-11T08:19:30.867Z,98715.85
2018-02-11T08:21:58.339Z,98719.06
2018-02-11T08:24:25.786Z,98720.66
2018-02-11T08:26:53.251Z,98724.91
2018-02-11T08:29:20.706Z,98738.52
2018-02-11T08:31:48.172Z,98749.33
2018-02-11T08:34:15.623Z,98749.36
2018-02-11T08:36:43.106Z,98744.14
2018-02-11T08:39:10.554Z,98750.37
2018-02-11T08:41:38.022Z,98741.66
2018-02-11T08:44:05.470Z,98744.69
2018-02-11T08:46:32.936Z,98750.45
2018-02-11T08:49:00.386Z,98731.22
2018-02-11T08:51:27.869Z,98737.33
2018-02-11T08:53:55.327Z,98741.42
2018-02-11T08:56:22.790Z,98736.72
2018-02-11T08:58:50.259Z,98735.91
2018-02-11T09:01:17.702Z,98747.13
2018-02-11T09:03:45.167Z,98745.41
2018-02-11T09:06:12.621Z,98741.55
2018-02-11T09:08:40.090Z,98744.03
2018-02-11T09:11:07.535Z,98747.95
2018-02-11T09:13:35.015Z,98755.75
2018-02-11T09:16:02.467Z,98759.37
2018-02-11T09:18:29.946Z,98755.95
2018-02-11T09:20:57.408Z,98759.08
2018-02-11T09:23:24.869Z,98766.54
2018-02-11T09:25:52.323Z,98759.64
2018-02-11T09:28:19.794Z,98760.15
2018-02-11T09:30:47.244Z,98757.97
2018-02-11T09:33:14.717Z,98754.28
2018-02-11T09:35:42.168Z,98754.61
2018-02-11T09:38:09.643Z,98747.52
2018-02-11T09:40:37.096Z,98751.16
2018-02-11T09:43:04.571Z,98753.47
2018-02-11T09:45:32.015Z,98742.94
2018-02-11T09:47:59.489Z,98751.50
2018-02-11T09:50:26.945Z,98759.80
2018-02-11T09:52:54.424Z,98745.55
2018-02-11T09:55:21.890Z,98750.69
2018-02-11T09:57:49.366Z,98748.11
2018-02-11T10:00:16.815Z,98754.30
2018-02-11T10:02:44.287Z,98754.76
2018-02-11T10:05:11.734Z,98757.86
2018-02-11T10:07:39.202Z,98756.96
2018-02-11T10:10:06.646Z,98764.73
2018-02-11T10:12:34.122Z,98763.47
2018-02-11T10:15:01.570Z,98770.95
2018-02-11T10:17:29.038Z,98770.97
2018-02-11T10:19:56.740Z,98760.86
2018-02-11T10:22:24.188Z,98774.59
2018-02-11T10:24:51.657Z,98765.73
2018-02-11T10:27:19.114Z,98778.64
2018-02-11T10:29:46.581Z,98774.22
2018-02-11T10:32:14.063Z,98776.78
2018-02-11T10:34:41.571Z,98787.38
2018-02-11T10:37:09.022Z,98782.85
2018-02-11T10:39:36.499Z,98786.16
2018-02-11T10:42:03.992Z,98772.91
2018-02-11T10:44:31.582Z,98779.45
2018-02-11T10:46:59.088Z,98785.84
2018-02-11T10:49:26.571Z,98783.95
2018-02-11T10:51:54.018Z,98763.69
2018-02-11T10:54:21.500Z,98779.07
2018-02-11T10:56:48.958Z,98777.11
2018-02-11T10:59:16.433Z,98773.19
2018-02-11T11:01:43.878Z,98768.06
2018-02-11T11:04:11.347Z,98770.24
2018-02-11T11:06:38.798Z,98763.90
2018-02-11T11:09:06.259Z,98745.09
2018-02-11T11:11:33.702Z,98772.21
2018-02-11T11:14:01.179Z,98767.25
2018-02-11T11:16:28.622Z,98768.73
2018-02-11T11:18:56.087Z,98750.37
2018-02-11T11:21:23.592Z,98753.06
2018-02-11T11:23:51.123Z,98758.84
2018-02-11T11:26:18.585Z,98764.50
2018-02-11T11:28:46.174Z,98775.69
2018-02-11T11:31:13.682Z,98755.48
2018-02-11T11:33:41.164Z,98768.73
2018-02-11T11:36:08.640Z,98748.89
2018-02-11T11:38:36.107Z,98763.06
2018-02-11T11:41:03.551Z,98755.09
2018-02-11T11:43:31.021Z,98768.56
2018-02-11T11:45:58.493Z,98762.75
2018-02-11T11:48:25.973Z,98766.11
2018-02-11T11:50:53.451Z,98761.43
2018-02-11T11:53:20.914Z,98762.20
2018-02-11T11:55:48.407Z,98759.93
2018-02-11T11:58:15.846Z,98759.96
2018-02-11T12:00:43.311Z,98757.40
2018-02-11T12:03:10.778Z,98751.61
2018-02-11T12:05:38.274Z,98761.62
2018-02-11T12:08:05.718Z,98765.27
2018-02-11T12:10:33.210Z,98758.23
2018-02-11T12:13:03.994Z,98762.67
2018-02-11T12:15:31.466Z,98756.50
2018-02-11T12:18:18.911Z,98759.69
2018-02-11T12:20:46.452Z,98763.05
2018-02-11T12:23:13.933Z,98769.21
2018-02-11T12:25:41.398Z,98759.89
2018-02-11T12:28:08.921Z,98764.97
2018-02-11T12:30:36.387Z,98754.03
2018-02-11T12:33:03.844Z,98763.58
2018-02-11T12:35:31.315Z,98767.83
2018-02-11T12:37:58.825Z,98773.20
2018-02-11T12:40:26.307Z,98761.63
2018-02-11T12:43:05.703Z,98763.25
2018-02-11T12:45:33.171Z,98768.53
2018-02-11T12:48:00.627Z,98769.35
2018-02-11T12:50:35.715Z,98761.42
2018-02-11T12:53:03.165Z,98759.98
2018-02-11T12:55:30.633Z,98749.30
2018-02-11T13:00:54.108Z,98759.11
2018-02-11T13:03:21.563Z,98760.11
2018-02-11T13:05:49.031Z,98755.52
2018-02-11T13:08:27.774Z,98755.86
2018-02-11T13:10:55.243Z,98758.60
2018-02-11T13:13:22.694Z,98755.88
2018-02-11T13:15:50.164Z,98765.61
2018-02-11T13:18:17.624Z,98764.90
2018-02-11T13:20:45.096Z,98766.02
2018-02-11T13:23:12.545Z,98787.60
2018-02-11T13:25:40.015Z,98785.50
2018-02-11T13:28:07.471Z,98789.44
2018-02-11T13:30:35.008Z,98797.49
2018-02-11T13:33:02.496Z,98779.76
2018-02-11T13:35:30.003Z,98788.08
2018-02-11T13:37:57.457Z,98788.19
2018-02-11T13:40:24.995Z,98772.05
2018-02-11T13:42:52.458Z,98792.72
2018-02-11T13:45:19.927Z,98801.69
2018-02-11T13:47:47.400Z,98805.52
2018-02-11T13:50:14.876Z,98806.13
2018-02-11T13:52:42.330Z,98793.44
2018-02-11T13:55:09.790Z,98810.34
2018-02-11T13:57:37.243Z,98797.36
2018-02-11T14:00:05.555Z,98808.27
2018-02-11T14:02:33.023Z,98810.75
2018-02-11T14:05:00.475Z,98813.67
2018-02-11T14:07:27.939Z,98819.20
2018-02-11T14:09:55.388Z,98810.37
2018-02-11T14:12:22.928Z,98810.33
2018-02-11T14:14:50.376Z,98807.51
2018-02-11T14:17:17.851Z,98816.16
2018-02-11T14:19:45.299Z,98808.18
2018-02-11T14:22:12.761Z,98801.30
2018-02-11T14:24:40.216Z,98806.77
2018-02-11T14:27:07.700Z,98800.15
2018-02-11T14:29:35.157Z,98798.77
2018-02-11T14:32:02.627Z,98811.28
2018-02-11T14:34:30.075Z,98795.16
2018-02-11T14:36:57.554Z,98807.19
2018-02-11T14:39:25.010Z,98812.86
2018-02-11T14:41:52.484Z,98807.34
2018-02-11T14:44:19.930Z,98814.55
2018-02-11T14:46:47.402Z,98806.20
2018-02-11T14:49:14.856Z,98807.27
2018-02-11T14:51:42.340Z,98809.70
2018-02-11T14:54:09.795Z,98809.03
2018-02-11T14:56:37.259Z,98823.55
2018-02-11T14:59:04.707Z,98828.95
2018-02-11T15:01:32.185Z,98816.06
2018-02-11T15:03:59.656Z,98825.48
2018-02-11T15:06:27.127Z,98827.81
2018-02-11T15:08:54.582Z,98826.67
2018-02-11T15:11:22.051Z,98829.59
2018-02-11T15:13:49.497Z,98830.55
2018-02-11T15:16:16.978Z,98842.79
2018-02-11T15:18:44.431Z,98838.22
2018-02-11T15:21:11.895Z,98839.95
2018-02-11T15:23:39.371Z,98833.88
2018-02-11T15:26:06.830Z,98844.52
2018-02-11T15:28:34.308Z,98847.53
2018-02-11T15:31:01.760Z,98843.39
2018-02-11T15:33:29.228Z,98855.66
2018-02-11T15:35:56.680Z,98863.34
2018-02-11T15:38:24.143Z,98878.09
2018-02-11T15:40:51.595Z,98872.98
2018-02-11T15:43:19.080Z,98869.48
2018-02-11T15:45:46.547Z,98870.31
2018-02-11T15:48:14.015Z,98872.59
2018-02-11T15:50:41.467Z,98883.80
2018-02-11T15:53:08.948Z,98883.77
2018-02-11T15:55:36.406Z,98878.05
2018-02-11T15:58:03.879Z,98884.16
2018-02-11T16:00:31.322Z,98886.25
2018-02-11T16:02:58.786Z,98885.44
2018-02-11T16:05:26.230Z,98888.20
2018-02-11T16:07:53.741Z,98892.53
2018-02-11T16:10:21.163Z,98890.70
2018-02-11T16:12:48.639Z,98893.08
2018-02-11T16:15:16.088Z,98887.57
2018-02-11T16:17:43.550Z,98892.64
2018-02-11T16:20:11.034Z,98887.81
2018-02-11T16:22:39.400Z,98888.63
2018-02-11T16:25:06.876Z,98894.66
2018-02-11T16:27:34.348Z,98892.90
2018-02-11T16:30:01.814Z,98901.02
2018-02-11T16:32:29.322Z,98910.73
2018-02-11T16:34:56.774Z,98908.61
2018-02-11T16:37:24.262Z,98921.98
2018-02-11T16:39:51.711Z,98919.82
2018-02-11T16:42:19.159Z,98915.71
2018-02-11T16:44:46.627Z,98918.51
2018-02-11T16:47:14.086Z,98917.81
2018-02-11T16:49:41.546Z,98925.19
2018-02-11T16:52:08.999Z,98907.52
2018-02-11T16:54:36.480Z,98931.77
2018-02-11T16:57:03.927Z,98937.31
2018-02-11T16:59:31.407Z,98946.11
2018-02-11T17:01:58.851Z,98943.98
2018-02-11T17:04:26.320Z,98941.16
2018-02-11T17:06:53.768Z,98937.39
2018-02-11T17:09:21.227Z,98945.20
2018-02-11T17:11:48.675Z,98949.18
2018-02-11T17:14:16.144Z,98956.30
2018-02-11T17:16:43.605Z,98957.53
2018-02-11T17:19:11.073Z,98957.67
2018-02-11T17:21:38.574Z,98957.99
2018-02-11T17:24:06.053Z,98966.53
2018-02-11T17:26:33.494Z,98969.95
2018-02-11T17:29:00.959Z,98967.11
2018-02-11T17:31:28.410Z,98965.30
2018-02-11T17:33:55.877Z,98967.19
2018-02-11T17:36:23.321Z,98963.77
2018-02-11T17:38:50.798Z,98970.20
2018-02-11T17:41:18.259Z,98975.07
2018-02-11T17:43:45.729Z,98979.42
2018-02-11T17:46:13.185Z,98986.91
2018-02-11T17:48:41.003Z,98987.44
2018-02-11T17:51:08.454Z,98992.69
2018-02-11T17:53:36.611Z,99001.30
2018-02-11T17:56:04.051Z,99002.45
2018-02-11T17:58:31.522Z,98999.72
2018-02-11T18:00:59.061Z,98998.43
2018-02-11T18:03:26.518Z,98998.44
2018-02-11T18:05:54.071Z,99006.48
2018-02-11T18:08:21.527Z,98998.93
2018-02-11T18:10:49.002Z,99003.69
2018-02-11T18:13:16.453Z,98997.29
2018-02-11T18:15:43.942Z,98996.16
2018-02-11T18:18:11.408Z,99004.67
2018-02-11T18:20:38.866Z,99014.01
2018-02-11T18:23:06.316Z,99024.88
2018-02-11T18:25:33.878Z,99031.13
2018-02-11T18:28:01.335Z,99029.88
2018-02-11T18:30:28.810Z,99032.41
2018-02-11T18:32:56.265Z,99041.66
2018-02-11T18:35:23.797Z,99043.28
2018-02-11T18:37:51.252Z,99044.62
2018-02-11T18:40:18.741Z,99050.83
2018-02-11T18:42:46.200Z,99048.55
2018-02-11T18:45:13.670Z,99054.73
2018-02-11T18:47:41.122Z,99056.03
2018-02-11T18:50:08.591Z,99061.27
2018-02-11T18:52:36.043Z,99066.52
2018-02-11T18:55:03.511Z,99070.81
2018-02-11T18:57:30.975Z,99079.00
2018-02-11T18:59:58.465Z,99077.77
2018-02-11T19:02:25.920Z,99077.81
2018-02-11T19:04:53.392Z,99072.97
2018-02-11T19:07:20.845Z,99075.06
2018-02-11T19:09:48.319Z,99076.30
2018-02-11T19:12:15.775Z,99073.97
2018-02-11T19:14:43.260Z,99077.95
2018-02-11T19:17:10.719Z,99076.51
2018-02-11T19:19:38.275Z,99077.16
2018-02-11T19:22:05.719Z,99081.77
2018-02-11T19:24:33.200Z,99082.55
2018-02-11T19:27:00.666Z,99085.64
2018-02-11T19:29:28.118Z,99088.48
2018-02-11T19:31:55.591Z,99084.74
2018-02-11T19:34:23.051Z,99096.71
2018-02-11T19:36:50.519Z,99093.45
2018-02-11T19:39:17.962Z,99099.53
2018-02-11T19:41:45.423Z,99111.92
2018-02-11T19:44:12.868Z,99125.31
2018-02-11T19:46:40.335Z,99109.70
2018-02-11T19:49:07.804Z,99116.73
2018-02-11T19:51:35.279Z,99124.22
2018-02-11T19:54:02.727Z,99109.41
2018-02-11T19:56:30.220Z,99122.67
2018-02-11T19:58:57.727Z,99121.10
2018-02-11T20:01:25.203Z,99115.89
2018-02-11T20:03:52.653Z,99113.80
2018-02-11T20:06:20.124Z,99106.38
2018-02-11T20:08:47.668Z,99103.11
2018-02-11T20:11:15.145Z,99117.30
2018-02-11T20:13:42.600Z,99113.98
2018-02-11T20:16:10.071Z,99118.01
2018-02-11T20:18:37.523Z,99116.76
2018-02-11T20:21:04.995Z,99122.34
2018-02-11T20:23:32.447Z,99128.72
2018-02-11T20:25:59.960Z,99130.19
2018-02-11T20:28:27.421Z,99131.45
2018-02-11T20:30:54.891Z,99125.54
2018-02-11T20:33:22.343Z,99134.67
2018-02-11T20:35:49.814Z,99134.75
2018-02-11T20:38:17.283Z,99133.39
2018-02-11T20:40:44.751Z,99137.06
2018-02-11T20:43:12.202Z,99135.75
2018-02-11T20:45:39.700Z,99138.55
2018-02-11T20:48:07.152Z,99144.28
2018-02-11T20:50:34.606Z,99135.66
2018-02-11T20:53:02.080Z,99144.49
2018-02-11T20:55:29.530Z,99147.61
2018-02-11T20:57:57.025Z,99136.40
2018-02-11T21:00:24.475Z,99134.13
2018-02-11T21:02:51.957Z,99143.11
2018-02-11T21:05:19.402Z,99139.47
2018-02-11T21:07:46.877Z,99133.16
2018-02-11T21:10:14.335Z,99130.80
2018-02-11T21:12:41.823Z,99141.09
2018-02-11T21:15:09.270Z,99141.73
2018-02-11T21:17:36.736Z,99143.82
2018-02-11T21:20:04.193Z,99148.09
2018-02-11T21:22:31.671Z,99153.53
2018-02-11T21:24:59.125Z,99154.44
2018-02-11T21:27:26.631Z,99154.35
2018-02-11T21:29:54.083Z,99156.52
2018-02-11T21:32:21.547Z,99163.16
2018-02-11T21:34:48.997Z,99171.77
2018-02-11T21:37:16.462Z,99168.81
2018-02-11T21:39:43.914Z,99175.09
2018-02-11T21:42:11.383Z,99174.66
2018-02-11T21:44:38.850Z,99176.61
2018-02-11T21:47:06.314Z,99180.19
2018-02-11T21:49:33.763Z,99180.36
2018-02-11T21:52:01.237Z,99180.70
2018-02-11T21:54:28.686Z,99179.86
2018-02-11T21:56:56.162Z,99179.92
2018-02-11T21:59:23.610Z,99191.32
2018-02-11T22:01:51.086Z,99195.84
2018-02-11T22:04:18.527Z,99184.38
2018-02-11T22:06:45.992Z,99185.15
2018-02-11T22:09:13.445Z,99187.88
2018-02-11T22:11:40.922Z,99185.03
2018-02-11T22:14:08.368Z,99189.06
2018-02-11T22:16:35.814Z,99197.27
2018-02-11T22:19:03.307Z,99197.24
2018-02-11T22:21:30.794Z,99204.11
2018-02-11T22:23:58.257Z,99201.48
2018-02-11T22:26:25.701Z,99210.03
2018-02-11T22:28:53.161Z,99217.13
2018-02-11T22:31:20.687Z,99220.48
2018-02-11T22:33:48.156Z,99223.97
2018-02-11T22:36:15.631Z,99231.41
2018-02-11T22:38:43.096Z,99224.80
2018-02-11T22:41:10.584Z,99234.42
2018-02-11T22:43:38.067Z,99233.10
2018-02-11T22:46:05.506Z,99246.13
2018-02-11T22:48:32.983Z,99244.95
2018-02-11T22:51:00.437Z,99239.08
2018-02-11T22:53:27.906Z,99243.59
2018-02-11T22:55:55.354Z,99253.41
2018-02-11T22:58:22.826Z,99251.42
2018-02-11T23:00:50.291Z,99252.36
2018-02-11T23:03:17.761Z,99252.38
2018-02-11T23:05:45.211Z,99250.33
2018-02-11T23:08:12.679Z,99266.22
2018-02-11T23:10:40.122Z,99268.57
2018-02-11T23:13:07.585Z,99267.24
2018-02-11T23:15:35.033Z,99245.60
2018-02-11T23:18:02.503Z,99260.86
2018-02-11T23:20:30.602Z,99260.91
2018-02-11T23:22:58.087Z,99265.12
2018-02-11T23:25:25.538Z,99265.32
2018-02-11T23:27:53.002Z,99260.63
2018-02-11T23:30:20.480Z,99272.64
2018-02-11T23:32:47.926Z,99265.94
2018-02-11T23:35:15.406Z,99268.94
2018-02-11T23:37:42.849Z,99270.67
2018-02-11T23:40:10.325Z,99278.77
2018-02-11T23:42:37.771Z,99270.13
2018-02-11T23:45:05.238Z,99275.59
2018-02-11T23:47:32.687Z,99287.30
2018-02-11T23:50:00.146Z,99286.80
2018-02-11T23:52:27.591Z,99293.63
2018-02-11T23:54:55.061Z,99296.62
2018-02-11T23:57:22.507Z,99289.07
2018-02-11T23:59:49.970Z,99303.08
